createdAt,value
2018-12-12T00:05:10.642Z,3.3
2018-12-12T00:15:23.839Z,3.5
2018-12-12T00:25:37.163Z,3.8
2018-12-12T00:35:50.444Z,1.4
2018-12-12T00:46:03.681Z,1.7
2018-12-12T00:56:16.934Z,2.8
2018-12-12T01:06:30.081Z,3.3
2018-12-12T01:16:43.077Z,2.0
2018-12-12T01:26:56.568Z,3.6
2018-12-12T01:37:09.595Z,2.2
2018-12-12T01:47:23.008Z,2.4
2018-12-12T01:57:36.276Z,6.2
2018-12-12T02:07:49.307Z,3.1
2018-12-12T02:18:02.803Z,2.8
2018-12-12T02:28:47.564Z,3.2
2018-12-12T02:39:00.857Z,3.1
2018-12-12T02:49:14.833Z,2.8
2018-12-12T02:59:28.067Z,2.9
2018-12-12T03:09:40.454Z,2.8
2018-12-12T03:19:54.566Z,2.2
2018-12-12T03:30:45.912Z,4.6
2018-12-12T03:41:37.278Z,2.6
2018-12-12T03:51:54.285Z,2.5
2018-12-12T04:02:44.595Z,4.3
2018-12-12T04:13:38.027Z,3.2
2018-12-12T04:23:53.009Z,1.9
2018-12-12T04:34:08.219Z,2.0
2018-12-12T04:44:25.683Z,2.3
2018-12-12T04:54:43.656Z,4.4
2018-12-12T05:05:34.701Z,4.8
2018-12-12T05:15:53.809Z,3.7
2018-12-12T05:26:05.038Z,4.5
2018-12-12T05:58:02.021Z,4.5
2018-12-12T06:09:08.614Z,5.2
2018-12-12T06:19:24.835Z,5.4
2018-12-12T06:29:41.677Z,1.8
2018-12-12T06:40:33.016Z,5.3
2018-12-12T06:51:38.909Z,5.5
2018-12-12T07:01:59.017Z,3.2
2018-12-12T07:12:14.059Z,3.5
2018-12-12T07:23:15.080Z,5.3
2018-12-12T07:33:31.126Z,3.9
2018-12-12T07:57:18.525Z,5.3
2018-12-12T08:09:06.072Z,3.2
2018-12-12T08:19:24.327Z,3.4
2018-12-12T08:30:11.588Z,4.0
2018-12-12T08:41:33.103Z,4.6
2018-12-12T08:52:26.094Z,4.6
2018-12-12T09:03:19.296Z,6.6
2018-12-12T09:14:05.226Z,7.4
2018-12-12T09:24:49.900Z,6.1
2018-12-12T09:35:03.071Z,3.8
2018-12-12T09:45:21.540Z,2.5
2018-12-12T09:56:01.680Z,3.7
2018-12-12T10:06:46.910Z,5.8
2018-12-12T10:17:00.277Z,8.4
2018-12-12T10:27:13.670Z,2.7
2018-12-12T10:37:26.723Z,3.8
2018-12-12T10:47:40.077Z,3.4
2018-12-12T10:57:53.360Z,4.9
2018-12-12T11:08:06.552Z,3.4
2018-12-12T11:18:52.420Z,4.8
2018-12-12T11:29:37.464Z,3.7
2018-12-12T11:39:52.294Z,3.6
2018-12-12T11:50:06.316Z,4.4
2018-12-12T12:00:19.141Z,2.7
2018-12-12T12:10:32.721Z,4.2
2018-12-12T12:20:43.914Z,5.9
2018-12-12T12:30:57.132Z,4.2
2018-12-12T12:41:10.371Z,5.7
2018-12-12T12:51:23.488Z,3.4
2018-12-12T13:01:36.473Z,3.3
2018-12-12T13:11:50.184Z,3.7
2018-12-12T13:22:03.280Z,3.7
2018-12-12T13:32:16.652Z,3.7
2018-12-12T13:42:29.853Z,4.2
2018-12-12T13:52:41.312Z,3.0
2018-12-12T14:02:55.288Z,3.7
2018-12-12T14:13:08.293Z,4.4
2018-12-12T14:23:21.285Z,5.1
2018-12-12T14:33:34.619Z,4.3
2018-12-12T14:43:48.553Z,3.4
2018-12-12T14:54:02.422Z,4.3
2018-12-12T15:04:47.730Z,5.3
2018-12-12T15:15:00.826Z,6.4
2018-12-12T15:25:14.840Z,4.9
2018-12-12T15:35:28.841Z,3.8
2018-12-12T15:45:41.791Z,3.6
2018-12-12T15:55:56.220Z,6.8
2018-12-12T16:06:09.401Z,4.6
2018-12-12T16:17:55.785Z,5.4
2018-12-12T16:28:09.568Z,5.2
2018-12-12T16:38:54.156Z,8.4
2018-12-12T16:49:07.390Z,6.2
2018-12-12T16:59:20.420Z,6.2
2018-12-12T17:09:33.978Z,6.3
2018-12-12T17:20:18.505Z,9.0
2018-12-12T17:30:32.070Z,4.5
2018-12-12T17:40:45.613Z,4.2
2018-12-12T17:50:59.666Z,4.1
2018-12-12T18:01:13.659Z,4.4
2018-12-12T18:11:26.684Z,5.9
2018-12-12T18:21:40.360Z,4.3
2018-12-12T18:32:05.644Z,3.4
2018-12-12T18:42:19.444Z,5.2
2018-12-12T18:53:04.253Z,5.8
2018-12-12T19:03:17.385Z,3.6
2018-12-12T19:13:30.502Z,6.0
2018-12-12T19:23:44.635Z,6.7
2018-12-12T20:35:05.852Z,13.0
2018-12-12T21:21:23.533Z,15.1
2018-12-12T21:31:36.703Z,5.0
2018-12-12T21:41:50.480Z,8.8
2018-12-12T21:52:35.858Z,10.1
2018-12-12T22:02:52.923Z,6.2
2018-12-12T22:13:04.918Z,5.8
2018-12-12T22:23:49.960Z,11.1
2018-12-12T22:34:35.956Z,12.6
2018-12-12T22:44:49.031Z,8.2
2018-12-12T22:55:37.340Z,10.5
2018-12-12T23:07:02.288Z,15.9
2018-12-12T23:17:15.666Z,7.4
2018-12-12T23:27:30.425Z,5.0
2018-12-12T23:38:15.321Z,9.3
2018-12-12T23:48:28.879Z,7.2
2018-12-12T23:59:37.717Z,9.8
